createdAt,value
2018-08-31T00:00:27.668Z,5.40
2018-08-31T00:03:01.954Z,5.73
2018-08-31T00:05:48.787Z,5.13
2018-08-31T00:08:40.391Z,5.47
2018-08-31T00:12:29.101Z,4.93
2018-08-31T00:15:03.317Z,4.97
2018-08-31T00:17:39.706Z,4.83
2018-08-31T00:20:14.655Z,4.67
2018-08-31T00:22:48.834Z,4.93
2018-08-31T00:26:13.731Z,5.17
2018-08-31T00:29:47.736Z,5.00
2018-08-31T00:33:32.160Z,5.53
2018-08-31T00:38:25.800Z,5.83
2018-08-31T00:42:10.530Z,5.57
2018-08-31T00:44:55.760Z,5.27
2018-08-31T00:47:30.708Z,5.30
2018-08-31T00:50:05.256Z,5.50
2018-08-31T00:52:39.699Z,6.00
2018-08-31T00:55:14.005Z,5.37
2018-08-31T00:57:49.550Z,6.17
2018-08-31T01:00:23.624Z,5.50
2018-08-31T01:02:57.955Z,5.50
2018-08-31T01:05:32.232Z,5.63
2018-08-31T01:08:07.176Z,5.63
2018-08-31T01:10:41.290Z,5.00
2018-08-31T01:13:16.015Z,5.73
2018-08-31T01:15:51.036Z,5.60
2018-08-31T01:18:25.188Z,5.07
2018-08-31T01:21:00.237Z,6.00
2018-08-31T01:23:34.452Z,5.17
2018-08-31T01:26:08.742Z,5.10
2018-08-31T01:28:42.820Z,5.43
2018-08-31T01:31:17.608Z,5.70
2018-08-31T01:33:52.662Z,5.70
2018-08-31T01:36:26.821Z,5.37
2018-08-31T01:39:01.096Z,5.83
2018-08-31T01:41:35.442Z,5.90
2018-08-31T01:44:09.771Z,5.63
2018-08-31T01:46:44.613Z,6.10
2018-08-31T01:49:18.922Z,5.27
2018-08-31T01:51:53.757Z,4.93
2018-08-31T01:54:28.147Z,5.63
2018-08-31T01:57:02.263Z,5.87
2018-08-31T01:59:36.821Z,5.97
2018-08-31T02:02:10.696Z,5.73
2018-08-31T02:04:44.958Z,5.23
2018-08-31T02:07:18.932Z,5.53
2018-08-31T02:09:53.948Z,6.37
2018-08-31T02:12:29.282Z,6.23
2018-08-31T02:15:03.450Z,6.93
2018-08-31T02:17:37.911Z,6.93
2018-08-31T02:20:11.946Z,6.80
2018-08-31T02:22:46.192Z,6.63
2018-08-31T02:25:20.583Z,6.33
2018-08-31T02:27:54.936Z,7.17
2018-08-31T02:30:29.301Z,8.40
2018-08-31T02:33:03.484Z,8.30
2018-08-31T02:35:38.600Z,8.67
2018-08-31T02:38:12.971Z,8.40
2018-08-31T02:40:47.101Z,8.13
2018-08-31T02:43:22.162Z,7.80
2018-08-31T02:45:56.297Z,8.20
2018-08-31T02:48:31.278Z,8.23
2018-08-31T02:51:05.396Z,8.80
2018-08-31T02:53:40.068Z,8.97
2018-08-31T02:56:14.622Z,8.83
2018-08-31T02:58:48.721Z,8.97
2018-08-31T03:01:22.981Z,9.60
2018-08-31T03:03:57.923Z,11.23
2018-08-31T03:06:32.627Z,9.27
2018-08-31T03:09:07.162Z,12.53
2018-08-31T03:11:42.108Z,14.97
2018-08-31T03:14:16.242Z,14.83
2018-08-31T03:16:50.361Z,14.87
2018-08-31T03:19:24.938Z,17.37
2018-08-31T03:22:00.094Z,16.53
2018-08-31T03:24:36.621Z,17.73
2018-08-31T03:27:11.026Z,15.60
2018-08-31T03:29:45.403Z,18.07
2018-08-31T03:32:19.922Z,17.47
2018-08-31T03:34:54.277Z,18.30
2018-08-31T03:37:29.109Z,20.10
2018-08-31T03:40:03.386Z,17.60
2018-08-31T03:42:37.532Z,19.27
2018-08-31T03:45:12.190Z,20.00
2018-08-31T03:47:46.533Z,20.03
2018-08-31T03:50:21.616Z,20.30
2018-08-31T03:52:55.560Z,21.00
2018-08-31T03:55:29.880Z,21.87
2018-08-31T03:58:04.929Z,20.17
2018-08-31T04:00:39.439Z,21.97
2018-08-31T04:03:13.956Z,20.73
2018-08-31T04:05:48.885Z,22.70
2018-08-31T04:08:24.185Z,22.43
2018-08-31T04:10:58.211Z,22.90
2018-08-31T04:13:32.345Z,23.43
2018-08-31T04:16:07.004Z,23.53
2018-08-31T04:18:41.247Z,22.20
2018-08-31T04:21:15.994Z,21.77
2018-08-31T04:23:50.568Z,19.33
2018-08-31T04:26:24.942Z,18.43
2018-08-31T04:28:59.953Z,18.40
2018-08-31T04:31:34.185Z,19.37
2018-08-31T04:34:09.537Z,18.23
2018-08-31T04:36:44.006Z,18.00
2018-08-31T04:39:18.136Z,19.33
2018-08-31T04:41:52.632Z,19.03
2018-08-31T04:44:27.393Z,18.83
2018-08-31T04:47:02.291Z,19.33
2018-08-31T04:49:36.167Z,17.77
2018-08-31T04:52:10.196Z,17.97
2018-08-31T04:54:44.256Z,16.80
2018-08-31T04:57:18.518Z,17.63
2018-08-31T04:59:52.803Z,18.03
2018-08-31T05:02:27.184Z,16.50
2018-08-31T05:05:02.050Z,19.03
2018-08-31T05:07:38.133Z,17.40
2018-08-31T05:10:12.182Z,17.07
2018-08-31T05:12:46.352Z,19.27
2018-08-31T05:15:20.313Z,18.53
2018-08-31T05:17:54.517Z,18.03
2018-08-31T05:20:28.649Z,16.23
2018-08-31T05:23:03.034Z,16.50
2018-08-31T05:25:37.067Z,18.30
2018-08-31T05:28:11.196Z,17.30
2018-08-31T05:30:46.181Z,18.40
2018-08-31T05:33:20.763Z,17.63
2018-08-31T05:35:55.047Z,16.73
2018-08-31T05:38:29.246Z,17.70
2018-08-31T05:41:03.726Z,15.53
2018-08-31T05:43:37.998Z,16.77
2018-08-31T05:46:12.156Z,16.57
2018-08-31T05:48:46.566Z,19.03
2018-08-31T05:51:21.750Z,15.80
2018-08-31T05:53:56.095Z,18.37
2018-08-31T05:56:30.236Z,17.00
2018-08-31T05:59:04.222Z,16.80
2018-08-31T06:01:38.697Z,17.23
2018-08-31T06:04:13.521Z,18.40
2018-08-31T06:06:48.282Z,15.47
2018-08-31T06:09:23.462Z,16.10
2018-08-31T06:11:58.689Z,17.73
2018-08-31T06:14:32.545Z,16.33
2018-08-31T06:17:06.953Z,17.67
2018-08-31T06:19:40.887Z,17.67
2018-08-31T06:22:14.910Z,16.10
2018-08-31T06:24:49.336Z,17.17
2018-08-31T06:27:23.655Z,16.53
2018-08-31T06:29:57.733Z,14.27
2018-08-31T06:32:31.880Z,16.20
2018-08-31T06:35:06.969Z,13.80
2018-08-31T06:37:41.930Z,14.03
2018-08-31T06:40:16.657Z,14.87
2018-08-31T06:42:50.678Z,14.30
2018-08-31T06:45:25.460Z,16.27
2018-08-31T06:48:00.414Z,15.23
2018-08-31T06:50:35.426Z,14.67
2018-08-31T06:53:09.808Z,16.30
2018-08-31T06:55:44.477Z,14.90
2018-08-31T06:58:18.716Z,14.20
2018-08-31T07:00:52.997Z,16.20
2018-08-31T07:03:27.347Z,13.83
2018-08-31T07:06:02.378Z,14.57
2018-08-31T07:08:36.787Z,13.67
2018-08-31T07:11:11.551Z,14.07
2018-08-31T07:13:45.941Z,13.13
2018-08-31T07:16:20.211Z,14.07
2018-08-31T07:18:54.662Z,12.60
2018-08-31T07:21:28.841Z,17.53
2018-08-31T07:24:02.930Z,15.13
2018-08-31T07:26:37.627Z,14.93
2018-08-31T07:29:11.347Z,15.73
2018-08-31T07:31:46.487Z,13.87
2018-08-31T07:34:20.787Z,13.30
2018-08-31T07:36:55.375Z,15.50
2018-08-31T07:39:29.453Z,14.70
2018-08-31T07:42:03.604Z,14.60
2018-08-31T07:44:37.857Z,13.27
2018-08-31T07:47:12.020Z,13.47
2018-08-31T07:49:46.777Z,12.53
2018-08-31T07:52:20.896Z,12.20
2018-08-31T07:54:55.162Z,12.07
2018-08-31T07:57:29.731Z,12.10
2018-08-31T08:00:05.103Z,12.27
2018-08-31T08:02:39.464Z,12.10
2018-08-31T08:05:14.217Z,12.10
2018-08-31T08:07:49.318Z,12.63
2018-08-31T08:10:23.467Z,11.10
2018-08-31T08:12:57.522Z,13.03
2018-08-31T08:15:31.806Z,12.87
2018-08-31T08:18:06.107Z,12.27
2018-08-31T08:20:40.588Z,11.40
2018-08-31T08:23:15.537Z,11.40
2018-08-31T08:25:49.786Z,10.73
2018-08-31T08:28:24.200Z,10.53
2018-08-31T08:30:58.877Z,10.67
2018-08-31T08:33:33.253Z,11.37
2018-08-31T08:36:08.168Z,10.80
2018-08-31T08:38:42.203Z,11.43
2018-08-31T08:41:16.174Z,12.30
2018-08-31T08:43:50.843Z,10.93
2018-08-31T08:46:25.023Z,10.90
2018-08-31T08:48:59.175Z,11.60
2018-08-31T08:51:33.878Z,11.00
2018-08-31T08:54:08.329Z,11.40
2018-08-31T08:56:42.752Z,12.23
2018-08-31T08:59:17.216Z,11.53
2018-08-31T09:01:51.616Z,11.10
2018-08-31T09:04:25.742Z,11.40
2018-08-31T09:06:59.734Z,10.40
2018-08-31T09:09:33.916Z,11.80
2018-08-31T09:12:08.382Z,9.97
2018-08-31T09:14:43.026Z,10.93
2018-08-31T09:17:17.511Z,10.53
2018-08-31T09:19:51.691Z,13.03
2018-08-31T09:22:26.351Z,10.47
2018-08-31T09:25:00.526Z,11.20
2018-08-31T09:27:35.202Z,11.20
2018-08-31T09:30:14.422Z,10.93
2018-08-31T09:32:49.227Z,9.90
2018-08-31T09:35:23.454Z,9.90
2018-08-31T09:37:58.412Z,10.60
2018-08-31T09:40:32.597Z,10.93
2018-08-31T09:43:07.279Z,9.70
2018-08-31T09:45:42.593Z,10.13
2018-08-31T09:48:16.822Z,9.13
2018-08-31T09:50:51.932Z,10.88
2018-08-31T09:53:26.022Z,8.57
2018-08-31T09:56:00.319Z,8.95
2018-08-31T09:58:34.877Z,8.73
2018-08-31T10:01:15.044Z,7.70
2018-08-31T10:03:49.231Z,6.25
2018-08-31T10:06:23.572Z,7.50
2018-08-31T10:08:58.323Z,6.62
2018-08-31T10:11:32.411Z,6.30
2018-08-31T10:14:07.460Z,6.50
2018-08-31T10:16:41.783Z,5.87
2018-08-31T10:19:15.983Z,4.83
2018-08-31T10:21:51.173Z,4.30
2018-08-31T10:24:25.482Z,3.72
2018-08-31T10:26:59.784Z,3.47
2018-08-31T10:29:34.059Z,3.58
2018-08-31T10:32:08.728Z,2.50
2018-08-31T10:34:43.773Z,3.15
2018-08-31T10:37:19.531Z,2.70
2018-08-31T10:39:54.448Z,3.20
2018-08-31T10:42:29.151Z,2.90
2018-08-31T10:45:03.599Z,3.40
2018-08-31T10:47:38.225Z,3.20
2018-08-31T10:50:12.653Z,2.72
2018-08-31T10:52:46.753Z,2.05
2018-08-31T10:55:20.973Z,2.25
2018-08-31T10:57:54.972Z,2.70
2018-08-31T11:00:30.283Z,2.40
2018-08-31T11:03:04.703Z,2.70
2018-08-31T11:05:39.311Z,2.40
2018-08-31T11:08:13.962Z,2.25
2018-08-31T11:10:47.990Z,1.95
2018-08-31T11:13:22.444Z,2.27
2018-08-31T11:15:57.591Z,2.42
2018-08-31T11:18:32.261Z,1.90
2018-08-31T11:21:06.843Z,2.20
2018-08-31T11:23:41.217Z,1.80
2018-08-31T11:26:15.645Z,1.47
2018-08-31T11:28:50.694Z,1.57
2018-08-31T11:31:25.248Z,2.10
2018-08-31T11:34:00.134Z,2.10
2018-08-31T11:36:34.398Z,2.33
2018-08-31T11:39:09.978Z,1.60
2018-08-31T11:41:44.087Z,1.52
2018-08-31T11:44:19.148Z,1.85
2018-08-31T11:46:54.229Z,1.40
2018-08-31T11:49:28.356Z,1.98
2018-08-31T11:52:02.874Z,1.75
2018-08-31T11:54:37.752Z,1.60
2018-08-31T11:57:11.876Z,1.67
2018-08-31T11:59:46.652Z,2.00
2018-08-31T12:02:21.208Z,1.95
2018-08-31T12:04:56.339Z,1.90
2018-08-31T12:07:30.636Z,2.02
2018-08-31T12:10:05.358Z,1.80
2018-08-31T12:12:40.147Z,1.77
2018-08-31T12:15:14.548Z,2.10
2018-08-31T12:17:48.692Z,1.82
2018-08-31T12:20:22.883Z,2.12
2018-08-31T12:22:57.392Z,2.17
2018-08-31T12:25:31.635Z,2.22
2018-08-31T12:28:05.609Z,2.08
2018-08-31T12:30:40.044Z,2.20
2018-08-31T12:33:14.937Z,2.00
2018-08-31T12:35:49.320Z,1.98
2018-08-31T12:38:24.006Z,1.80
2018-08-31T12:40:58.415Z,1.70
2018-08-31T12:43:33.147Z,2.27
2018-08-31T12:46:07.456Z,2.20
2018-08-31T12:48:41.737Z,1.82
2018-08-31T12:51:16.927Z,1.72
2018-08-31T12:53:51.207Z,1.60
2018-08-31T12:56:25.341Z,1.80
2018-08-31T12:58:59.755Z,1.67
2018-08-31T13:01:34.219Z,2.00
2018-08-31T13:04:09.309Z,2.00
2018-08-31T13:06:43.745Z,2.12
2018-08-31T13:09:17.692Z,1.90
2018-08-31T13:11:52.231Z,1.80
2018-08-31T13:14:26.288Z,2.00
2018-08-31T13:17:01.420Z,1.90
2018-08-31T13:19:35.632Z,2.20
2018-08-31T13:22:10.513Z,2.05
2018-08-31T13:24:45.822Z,2.05
2018-08-31T13:27:19.775Z,2.10
2018-08-31T13:29:55.099Z,2.20
2018-08-31T13:32:29.163Z,2.15
2018-08-31T13:35:03.751Z,2.55
2018-08-31T13:37:38.416Z,2.00
2018-08-31T13:40:12.613Z,1.67
2018-08-31T13:42:46.714Z,1.80
2018-08-31T13:45:20.992Z,1.72
2018-08-31T13:47:55.394Z,1.40
2018-08-31T13:50:30.078Z,1.50
2018-08-31T13:53:04.654Z,1.70
2018-08-31T13:55:39.649Z,1.87
2018-08-31T13:58:14.099Z,1.60
2018-08-31T14:00:48.947Z,1.70
2018-08-31T14:03:23.262Z,1.22
2018-08-31T14:05:57.468Z,1.50
2018-08-31T14:08:31.665Z,1.60
2018-08-31T14:11:06.197Z,1.85
2018-08-31T14:13:40.809Z,1.50
2018-08-31T14:16:15.024Z,1.82
2018-08-31T14:18:51.052Z,1.50
2018-08-31T14:21:25.707Z,1.30
2018-08-31T14:24:00.082Z,1.82
2018-08-31T14:26:34.941Z,1.42
2018-08-31T14:29:09.309Z,1.40
2018-08-31T14:31:43.758Z,1.30
2018-08-31T14:34:18.114Z,1.50
2018-08-31T14:36:53.627Z,1.20
2018-08-31T14:39:28.231Z,1.57
2018-08-31T14:42:02.577Z,1.60
2018-08-31T14:44:36.958Z,1.75
2018-08-31T14:47:11.699Z,1.40
2018-08-31T14:49:46.433Z,1.80
2018-08-31T14:52:20.553Z,1.65
2018-08-31T14:54:55.263Z,1.70
2018-08-31T14:57:29.736Z,1.70
2018-08-31T15:00:05.244Z,1.77
2018-08-31T15:02:40.226Z,1.35
2018-08-31T15:05:14.751Z,1.57
2018-08-31T15:07:49.049Z,1.92
2018-08-31T15:10:23.172Z,1.47
2018-08-31T15:12:57.717Z,1.87
2018-08-31T15:15:32.102Z,2.00
2018-08-31T15:18:06.774Z,1.77
2018-08-31T15:20:41.212Z,1.77
2018-08-31T15:23:16.047Z,1.80
2018-08-31T15:25:50.356Z,1.77
2018-08-31T15:28:25.389Z,2.00
2018-08-31T15:31:00.290Z,1.62
2018-08-31T15:33:34.434Z,2.00
2018-08-31T15:36:09.023Z,1.52
2018-08-31T15:38:43.110Z,1.40
2018-08-31T15:41:17.573Z,1.82
2018-08-31T15:43:52.428Z,2.02
2018-08-31T15:46:26.812Z,1.80
2018-08-31T15:49:07.411Z,1.60
2018-08-31T15:51:41.593Z,1.87
2018-08-31T15:54:15.910Z,2.35
2018-08-31T15:56:50.317Z,1.42
2018-08-31T15:59:24.987Z,1.92
2018-08-31T16:01:59.427Z,1.50
2018-08-31T16:04:34.217Z,1.85
2018-08-31T16:10:12.366Z,1.70
2018-08-31T16:12:52.034Z,1.92
2018-08-31T16:15:30.342Z,1.52
2018-08-31T16:18:04.843Z,2.02
2018-08-31T16:20:40.409Z,1.70
2018-08-31T16:23:15.907Z,1.55
2018-08-31T16:25:50.933Z,1.90
2018-08-31T16:28:25.483Z,1.70
2018-08-31T16:30:59.923Z,1.70
2018-08-31T16:33:34.570Z,1.55
2018-08-31T16:36:09.347Z,1.62
2018-08-31T16:38:43.586Z,1.70
2018-08-31T16:41:24.676Z,1.65
2018-08-31T16:43:59.276Z,1.47
2018-08-31T16:46:33.743Z,1.62
2018-08-31T16:49:08.187Z,1.70
2018-08-31T16:51:43.573Z,1.62
2018-08-31T16:54:24.375Z,1.60
2018-08-31T16:56:59.817Z,1.72
2018-08-31T16:59:34.346Z,1.60
2018-08-31T17:02:08.773Z,2.08
2018-08-31T17:04:42.935Z,1.70
2018-08-31T17:07:17.909Z,1.50
2018-08-31T17:09:52.725Z,1.70
2018-08-31T17:12:27.186Z,1.65
2018-08-31T17:15:01.639Z,1.55
2018-08-31T17:17:36.215Z,1.65
2018-08-31T17:20:10.353Z,1.22
2018-08-31T17:22:44.543Z,1.50
2018-08-31T17:25:18.773Z,1.70
2018-08-31T17:27:58.640Z,1.60
2018-08-31T17:30:33.011Z,1.62
2018-08-31T17:33:13.005Z,1.87
2018-08-31T17:35:52.567Z,1.42
2018-08-31T17:38:27.223Z,1.57
2018-08-31T17:41:01.485Z,1.55
2018-08-31T17:43:35.916Z,1.87
2018-08-31T17:46:11.063Z,1.67
2018-08-31T17:48:50.817Z,1.70
2018-08-31T17:51:25.453Z,2.80
2018-08-31T17:53:59.718Z,16.60
2018-08-31T17:56:34.093Z,3.95
2018-08-31T17:59:08.559Z,2.20
2018-08-31T18:01:43.491Z,1.72
2018-08-31T18:04:17.987Z,1.87
2018-08-31T18:06:51.950Z,1.82
2018-08-31T18:09:26.555Z,1.70
2018-08-31T18:12:00.868Z,1.45
2018-08-31T18:14:35.728Z,2.70
2018-08-31T18:17:10.731Z,2.33
2018-08-31T18:19:45.800Z,2.05
2018-08-31T18:22:20.702Z,1.42
2018-08-31T18:24:55.661Z,1.55
2018-08-31T18:27:30.509Z,1.70
2018-08-31T18:30:04.917Z,2.17
2018-08-31T18:32:40.892Z,1.70
2018-08-31T18:35:14.717Z,1.77
2018-08-31T18:37:49.093Z,1.97
2018-08-31T18:40:23.483Z,1.60
2018-08-31T18:42:59.566Z,1.60
2018-08-31T18:45:34.645Z,1.70
2018-08-31T18:48:09.413Z,1.67
2018-08-31T18:50:44.188Z,1.60
2018-08-31T18:53:18.648Z,1.70
2018-08-31T18:55:52.747Z,1.60
2018-08-31T18:58:27.768Z,1.33
2018-08-31T19:01:02.577Z,1.40
2018-08-31T19:03:36.891Z,1.47
2018-08-31T19:06:11.570Z,1.70
2018-08-31T19:08:45.611Z,2.00
2018-08-31T19:11:20.031Z,1.70
2018-08-31T19:13:53.840Z,2.13
2018-08-31T19:16:27.949Z,1.87
2018-08-31T19:19:02.353Z,1.53
2018-08-31T19:21:36.935Z,1.73
2018-08-31T19:24:11.961Z,1.70
2018-08-31T19:26:46.947Z,2.00
2018-08-31T19:29:21.328Z,2.00
2018-08-31T19:31:55.443Z,2.10
2018-08-31T19:34:29.726Z,2.00
2018-08-31T19:37:04.537Z,1.80
2018-08-31T19:39:39.302Z,1.80
2018-08-31T19:42:13.650Z,2.00
2018-08-31T19:44:47.935Z,1.73
2018-08-31T19:47:22.052Z,2.10
2018-08-31T19:49:56.423Z,1.77
2018-08-31T19:52:31.359Z,2.03
2018-08-31T19:55:05.705Z,1.67
2018-08-31T19:57:40.112Z,2.07
2018-08-31T20:00:14.508Z,2.00
2018-08-31T20:02:48.746Z,1.70
2018-08-31T20:05:23.679Z,2.10
2018-08-31T20:07:57.989Z,1.73
2018-08-31T20:10:32.569Z,2.00
2018-08-31T20:13:07.036Z,2.10
2018-08-31T20:15:41.248Z,2.50
2018-08-31T20:18:15.908Z,2.60
2018-08-31T20:20:50.068Z,2.57
2018-08-31T20:23:24.640Z,2.50
2018-08-31T20:25:59.498Z,2.20
2018-08-31T20:28:33.867Z,2.50
2018-08-31T20:31:08.429Z,2.20
2018-08-31T20:33:42.829Z,2.60
2018-08-31T20:36:17.126Z,2.30
2018-08-31T20:38:51.587Z,2.20
2018-08-31T20:41:26.017Z,2.17
2018-08-31T20:44:00.383Z,2.27
2018-08-31T20:46:34.899Z,2.23
2018-08-31T20:49:10.134Z,2.47
2018-08-31T20:51:45.176Z,2.60
2018-08-31T20:54:20.146Z,2.40
2018-08-31T20:56:54.557Z,2.50
2018-08-31T20:59:28.768Z,3.37
2018-08-31T21:02:03.875Z,4.40
2018-08-31T21:04:38.113Z,3.10
2018-08-31T21:07:12.473Z,3.47
2018-08-31T21:09:47.698Z,3.00
2018-08-31T21:12:22.024Z,2.77
2018-08-31T21:14:56.847Z,2.53
2018-08-31T21:17:31.482Z,3.20
2018-08-31T21:20:05.876Z,3.07
2018-08-31T21:22:40.176Z,2.70
2018-08-31T21:25:15.063Z,2.60
2018-08-31T21:27:50.289Z,2.60
2018-08-31T21:30:25.263Z,2.63
2018-08-31T21:32:59.669Z,2.90
2018-08-31T21:35:34.115Z,2.57
2018-08-31T21:38:08.965Z,2.40
2018-08-31T21:40:43.620Z,3.30
2018-08-31T21:43:18.392Z,2.20
2018-08-31T21:45:52.828Z,2.93
2018-08-31T21:48:27.046Z,3.07
2018-08-31T21:51:01.261Z,2.70
2018-08-31T21:53:36.088Z,2.87
2018-08-31T21:56:10.501Z,2.33
2018-08-31T21:58:45.132Z,2.77
2018-08-31T22:01:25.102Z,2.67
2018-08-31T22:03:59.898Z,3.00
2018-08-31T22:06:35.323Z,2.23
2018-08-31T22:09:10.107Z,2.50
2018-08-31T22:11:44.497Z,2.40
2018-08-31T22:14:19.057Z,2.17
2018-08-31T22:16:53.725Z,2.30
2018-08-31T22:19:28.055Z,2.70
2018-08-31T22:22:02.236Z,2.47
2018-08-31T22:24:37.077Z,2.40
2018-08-31T22:27:11.540Z,2.90
2018-08-31T22:29:45.619Z,2.53
2018-08-31T22:32:20.652Z,2.57
2018-08-31T22:34:55.551Z,2.60
2018-08-31T22:37:30.311Z,2.63
2018-08-31T22:40:04.475Z,2.50
2018-08-31T22:42:38.538Z,2.50
2018-08-31T22:45:14.652Z,2.33
2018-08-31T22:47:48.771Z,2.60
2018-08-31T22:50:22.900Z,2.83
2018-08-31T22:52:57.135Z,2.90
2018-08-31T22:55:31.331Z,2.93
2018-08-31T22:58:05.364Z,2.83
2018-08-31T23:00:39.657Z,2.83
2018-08-31T23:03:14.692Z,3.87
2018-08-31T23:05:49.059Z,5.10
2018-08-31T23:08:23.117Z,28.77
2018-08-31T23:10:57.861Z,33.87
2018-08-31T23:13:32.111Z,36.57
2018-08-31T23:16:06.661Z,32.27
2018-08-31T23:18:40.861Z,28.57
2018-08-31T23:21:15.290Z,8.03
2018-08-31T23:23:49.562Z,4.73
2018-08-31T23:26:25.269Z,3.87
2018-08-31T23:28:59.320Z,2.90
2018-08-31T23:31:33.480Z,3.30
2018-08-31T23:34:07.699Z,3.20
2018-08-31T23:36:41.810Z,3.47
2018-08-31T23:39:16.526Z,3.43
2018-08-31T23:41:51.615Z,3.40
2018-08-31T23:44:26.090Z,3.17
2018-08-31T23:47:00.321Z,3.40
2018-08-31T23:49:35.202Z,3.17
2018-08-31T23:52:10.088Z,3.30
2018-08-31T23:54:44.105Z,3.00
2018-08-31T23:57:19.311Z,3.53
2018-08-31T23:59:53.818Z,3.10
